sensor_id;sensor_type;location;lat;lon;timestamp;P1;durP1;ratioP1;P2;durP2;ratioP2
52124;SDS011;38119;52.710;6.398;2023-04-25T00:01:10;17.52;;;4.68;;
52124;SDS011;38119;52.710;6.398;2023-04-25T00:03:38;14.23;;;4.72;;
52124;SDS011;38119;52.710;6.398;2023-04-25T00:06:04;14.88;;;4.55;;
52124;SDS011;38119;52.710;6.398;2023-04-25T00:08:31;15.70;;;4.43;;
52124;SDS011;38119;52.710;6.398;2023-04-25T00:10:57;25.80;;;5.43;;
52124;SDS011;38119;52.710;6.398;2023-04-25T00:13:26;19.58;;;4.55;;
52124;SDS011;38119;52.710;6.398;2023-04-25T00:15:52;24.90;;;5.18;;
52124;SDS011;38119;52.710;6.398;2023-04-25T00:18:18;18.58;;;4.70;;
52124;SDS011;38119;52.710;6.398;2023-04-25T00:20:44;17.73;;;4.95;;
52124;SDS011;38119;52.710;6.398;2023-04-25T00:23:11;17.27;;;4.57;;
52124;SDS011;38119;52.710;6.398;2023-04-25T00:25:42;17.77;;;5.00;;
52124;SDS011;38119;52.710;6.398;2023-04-25T00:28:09;16.15;;;4.53;;
52124;SDS011;38119;52.710;6.398;2023-04-25T00:30:35;17.88;;;4.57;;
52124;SDS011;38119;52.710;6.398;2023-04-25T00:33:00;17.77;;;4.50;;
52124;SDS011;38119;52.710;6.398;2023-04-25T00:35:26;21.92;;;4.35;;
52124;SDS011;38119;52.710;6.398;2023-04-25T00:37:52;15.23;;;4.15;;
52124;SDS011;38119;52.710;6.398;2023-04-25T00:40:17;16.90;;;4.60;;
52124;SDS011;38119;52.710;6.398;2023-04-25T00:42:43;17.40;;;4.43;;
52124;SDS011;38119;52.710;6.398;2023-04-25T00:45:10;21.88;;;4.95;;
52124;SDS011;38119;52.710;6.398;2023-04-25T00:47:39;16.40;;;4.10;;
52124;SDS011;38119;52.710;6.398;2023-04-25T00:50:05;18.00;;;4.72;;
52124;SDS011;38119;52.710;6.398;2023-04-25T00:52:32;24.80;;;4.80;;
52124;SDS011;38119;52.710;6.398;2023-04-25T00:54:57;17.25;;;4.57;;
52124;SDS011;38119;52.710;6.398;2023-04-25T00:57:27;20.17;;;4.50;;
52124;SDS011;38119;52.710;6.398;2023-04-25T00:59:53;16.15;;;4.50;;
52124;SDS011;38119;52.710;6.398;2023-04-25T01:02:19;15.10;;;4.05;;
52124;SDS011;38119;52.710;6.398;2023-04-25T01:04:45;18.45;;;4.13;;
52124;SDS011;38119;52.710;6.398;2023-04-25T01:07:12;17.35;;;4.20;;
52124;SDS011;38119;52.710;6.398;2023-04-25T01:09:38;15.13;;;4.63;;
52124;SDS011;38119;52.710;6.398;2023-04-25T01:12:04;10.70;;;3.58;;
52124;SDS011;38119;52.710;6.398;2023-04-25T01:14:29;17.05;;;4.15;;
52124;SDS011;38119;52.710;6.398;2023-04-25T01:16:55;18.02;;;4.70;;
52124;SDS011;38119;52.710;6.398;2023-04-25T01:19:21;16.17;;;4.28;;
52124;SDS011;38119;52.710;6.398;2023-04-25T01:21:47;19.58;;;3.97;;
52124;SDS011;38119;52.710;6.398;2023-04-25T01:24:13;20.88;;;4.43;;
52124;SDS011;38119;52.710;6.398;2023-04-25T01:26:39;19.15;;;4.13;;
52124;SDS011;38119;52.710;6.398;2023-04-25T01:29:09;13.75;;;4.47;;
52124;SDS011;38119;52.710;6.398;2023-04-25T01:31:35;18.55;;;4.72;;
52124;SDS011;38119;52.710;6.398;2023-04-25T01:34:01;16.67;;;4.93;;
52124;SDS011;38119;52.710;6.398;2023-04-25T01:36:27;17.05;;;4.00;;
52124;SDS011;38119;52.710;6.398;2023-04-25T01:38:53;18.90;;;4.93;;
52124;SDS011;38119;52.710;6.398;2023-04-25T01:41:20;14.20;;;4.28;;
52124;SDS011;38119;52.710;6.398;2023-04-25T01:43:48;14.38;;;4.43;;
52124;SDS011;38119;52.710;6.398;2023-04-25T01:46:13;15.35;;;3.67;;
52124;SDS011;38119;52.710;6.398;2023-04-25T01:48:40;13.23;;;3.58;;
52124;SDS011;38119;52.710;6.398;2023-04-25T01:51:05;17.25;;;5.55;;
52124;SDS011;38119;52.710;6.398;2023-04-25T01:53:31;16.02;;;4.18;;
52124;SDS011;38119;52.710;6.398;2023-04-25T01:55:57;16.88;;;4.07;;
52124;SDS011;38119;52.710;6.398;2023-04-25T01:58:22;17.95;;;4.88;;
52124;SDS011;38119;52.710;6.398;2023-04-25T02:00:48;17.80;;;3.95;;
52124;SDS011;38119;52.710;6.398;2023-04-25T02:03:13;15.98;;;4.00;;
52124;SDS011;38119;52.710;6.398;2023-04-25T02:05:39;13.75;;;4.00;;
52124;SDS011;38119;52.710;6.398;2023-04-25T02:08:06;15.98;;;4.15;;
52124;SDS011;38119;52.710;6.398;2023-04-25T02:10:33;13.60;;;4.18;;
52124;SDS011;38119;52.710;6.398;2023-04-25T02:13:00;14.95;;;3.72;;
52124;SDS011;38119;52.710;6.398;2023-04-25T02:15:26;15.15;;;3.67;;
52124;SDS011;38119;52.710;6.398;2023-04-25T02:17:51;13.55;;;3.47;;
52124;SDS011;38119;52.710;6.398;2023-04-25T02:20:21;19.65;;;4.50;;
52124;SDS011;38119;52.710;6.398;2023-04-25T02:22:47;16.60;;;4.35;;
52124;SDS011;38119;52.710;6.398;2023-04-25T02:25:13;17.23;;;4.28;;
52124;SDS011;38119;52.710;6.398;2023-04-25T02:27:39;13.45;;;4.10;;
52124;SDS011;38119;52.710;6.398;2023-04-25T02:30:05;11.85;;;3.78;;
52124;SDS011;38119;52.710;6.398;2023-04-25T02:32:31;14.75;;;4.30;;
52124;SDS011;38119;52.710;6.398;2023-04-25T02:34:59;13.55;;;3.47;;
52124;SDS011;38119;52.710;6.398;2023-04-25T02:37:28;15.85;;;4.00;;
52124;SDS011;38119;52.710;6.398;2023-04-25T02:39:55;14.70;;;4.38;;
52124;SDS011;38119;52.710;6.398;2023-04-25T02:42:20;13.25;;;4.57;;
52124;SDS011;38119;52.710;6.398;2023-04-25T02:44:46;17.85;;;4.20;;
52124;SDS011;38119;52.710;6.398;2023-04-25T02:47:11;17.23;;;4.40;;
52124;SDS011;38119;52.710;6.398;2023-04-25T02:49:37;11.05;;;3.80;;
52124;SDS011;38119;52.710;6.398;2023-04-25T02:52:02;18.63;;;4.35;;
52124;SDS011;38119;52.710;6.398;2023-04-25T02:54:28;13.65;;;3.45;;
52124;SDS011;38119;52.710;6.398;2023-04-25T02:56:55;15.90;;;4.30;;
52124;SDS011;38119;52.710;6.398;2023-04-25T02:59:20;14.40;;;3.85;;
52124;SDS011;38119;52.710;6.398;2023-04-25T03:01:46;12.38;;;3.65;;
52124;SDS011;38119;52.710;6.398;2023-04-25T03:04:12;18.15;;;4.18;;
52124;SDS011;38119;52.710;6.398;2023-04-25T03:06:38;13.57;;;3.90;;
52124;SDS011;38119;52.710;6.398;2023-04-25T03:09:05;16.85;;;4.47;;
52124;SDS011;38119;52.710;6.398;2023-04-25T03:11:31;13.85;;;4.18;;
52124;SDS011;38119;52.710;6.398;2023-04-25T03:13:57;13.27;;;3.97;;
52124;SDS011;38119;52.710;6.398;2023-04-25T03:16:23;12.57;;;3.72;;
52124;SDS011;38119;52.710;6.398;2023-04-25T03:18:48;16.80;;;3.78;;
52124;SDS011;38119;52.710;6.398;2023-04-25T03:21:16;16.73;;;3.70;;
52124;SDS011;38119;52.710;6.398;2023-04-25T03:23:43;18.83;;;3.63;;
52124;SDS011;38119;52.710;6.398;2023-04-25T03:26:08;14.95;;;3.67;;
52124;SDS011;38119;52.710;6.398;2023-04-25T03:28:34;15.13;;;3.83;;
52124;SDS011;38119;52.710;6.398;2023-04-25T03:31:00;16.30;;;4.10;;
52124;SDS011;38119;52.710;6.398;2023-04-25T03:33:26;15.27;;;3.50;;
52124;SDS011;38119;52.710;6.398;2023-04-25T03:35:51;15.00;;;3.63;;
52124;SDS011;38119;52.710;6.398;2023-04-25T03:38:17;11.68;;;4.28;;
52124;SDS011;38119;52.710;6.398;2023-04-25T03:40:42;17.15;;;3.67;;
52124;SDS011;38119;52.710;6.398;2023-04-25T03:43:08;15.63;;;4.10;;
52124;SDS011;38119;52.710;6.398;2023-04-25T03:45:33;12.07;;;4.10;;
52124;SDS011;38119;52.710;6.398;2023-04-25T03:47:59;13.32;;;3.50;;
52124;SDS011;38119;52.710;6.398;2023-04-25T03:50:26;20.20;;;4.07;;
52124;SDS011;38119;52.710;6.398;2023-04-25T03:52:51;15.43;;;3.72;;
52124;SDS011;38119;52.710;6.398;2023-04-25T03:55:17;15.80;;;3.85;;
52124;SDS011;38119;52.710;6.398;2023-04-25T03:57:43;15.05;;;3.30;;
52124;SDS011;38119;52.710;6.398;2023-04-25T04:00:09;17.27;;;3.85;;
52124;SDS011;38119;52.710;6.398;2023-04-25T04:02:35;15.15;;;3.42;;
52124;SDS011;38119;52.710;6.398;2023-04-25T04:05:03;17.70;;;3.65;;
52124;SDS011;38119;52.710;6.398;2023-04-25T04:07:28;11.07;;;2.70;;
52124;SDS011;38119;52.710;6.398;2023-04-25T04:09:54;13.27;;;3.20;;
52124;SDS011;38119;52.710;6.398;2023-04-25T04:12:20;14.23;;;2.97;;
52124;SDS011;38119;52.710;6.398;2023-04-25T04:14:45;10.25;;;2.80;;
52124;SDS011;38119;52.710;6.398;2023-04-25T04:17:11;14.30;;;2.85;;
52124;SDS011;38119;52.710;6.398;2023-04-25T04:19:36;10.70;;;2.67;;
52124;SDS011;38119;52.710;6.398;2023-04-25T04:22:02;11.65;;;2.90;;
52124;SDS011;38119;52.710;6.398;2023-04-25T04:24:27;11.60;;;2.80;;
52124;SDS011;38119;52.710;6.398;2023-04-25T04:26:56;8.95;;;2.60;;
52124;SDS011;38119;52.710;6.398;2023-04-25T04:29:22;10.30;;;2.40;;
52124;SDS011;38119;52.710;6.398;2023-04-25T04:31:50;12.48;;;2.70;;
52124;SDS011;38119;52.710;6.398;2023-04-25T04:34:17;14.45;;;3.03;;
52124;SDS011;38119;52.710;6.398;2023-04-25T04:36:46;13.93;;;2.80;;
52124;SDS011;38119;52.710;6.398;2023-04-25T04:39:12;8.55;;;2.38;;
52124;SDS011;38119;52.710;6.398;2023-04-25T04:41:38;8.50;;;2.50;;
52124;SDS011;38119;52.710;6.398;2023-04-25T04:44:04;13.07;;;3.00;;
52124;SDS011;38119;52.710;6.398;2023-04-25T04:46:31;9.77;;;2.20;;
52124;SDS011;38119;52.710;6.398;2023-04-25T04:49:02;11.40;;;2.80;;
52124;SDS011;38119;52.710;6.398;2023-04-25T04:51:29;11.68;;;2.80;;
52124;SDS011;38119;52.710;6.398;2023-04-25T04:53:56;10.10;;;2.75;;
52124;SDS011;38119;52.710;6.398;2023-04-25T04:56:23;8.27;;;2.42;;
52124;SDS011;38119;52.710;6.398;2023-04-25T04:58:50;12.32;;;2.72;;
52124;SDS011;38119;52.710;6.398;2023-04-25T05:01:17;6.20;;;1.92;;
52124;SDS011;38119;52.710;6.398;2023-04-25T05:03:43;9.23;;;2.03;;
52124;SDS011;38119;52.710;6.398;2023-04-25T05:06:08;8.60;;;2.13;;
52124;SDS011;38119;52.710;6.398;2023-04-25T05:08:34;12.48;;;3.08;;
52124;SDS011;38119;52.710;6.398;2023-04-25T05:11:01;9.30;;;2.63;;
52124;SDS011;38119;52.710;6.398;2023-04-25T05:13:26;13.27;;;3.17;;
52124;SDS011;38119;52.710;6.398;2023-04-25T05:15:52;8.65;;;2.45;;
52124;SDS011;38119;52.710;6.398;2023-04-25T05:18:18;10.95;;;2.55;;
52124;SDS011;38119;52.710;6.398;2023-04-25T05:20:43;11.43;;;2.50;;
52124;SDS011;38119;52.710;6.398;2023-04-25T05:23:09;6.80;;;2.13;;
52124;SDS011;38119;52.710;6.398;2023-04-25T05:25:34;9.75;;;1.92;;
52124;SDS011;38119;52.710;6.398;2023-04-25T05:28:00;5.25;;;1.77;;
52124;SDS011;38119;52.710;6.398;2023-04-25T05:30:25;8.65;;;1.90;;
52124;SDS011;38119;52.710;6.398;2023-04-25T05:32:52;9.60;;;2.20;;
52124;SDS011;38119;52.710;6.398;2023-04-25T05:35:18;7.00;;;2.45;;
52124;SDS011;38119;52.710;6.398;2023-04-25T05:37:43;12.32;;;2.10;;
52124;SDS011;38119;52.710;6.398;2023-04-25T05:40:09;11.35;;;2.10;;
52124;SDS011;38119;52.710;6.398;2023-04-25T05:42:35;8.70;;;2.25;;
52124;SDS011;38119;52.710;6.398;2023-04-25T05:45:01;11.45;;;2.40;;
52124;SDS011;38119;52.710;6.398;2023-04-25T05:47:27;10.48;;;2.22;;
52124;SDS011;38119;52.710;6.398;2023-04-25T05:49:52;11.55;;;2.42;;
52124;SDS011;38119;52.710;6.398;2023-04-25T05:52:18;10.60;;;2.40;;
52124;SDS011;38119;52.710;6.398;2023-04-25T05:54:44;14.35;;;2.20;;
52124;SDS011;38119;52.710;6.398;2023-04-25T05:57:17;10.05;;;2.35;;
52124;SDS011;38119;52.710;6.398;2023-04-25T05:59:50;7.85;;;2.25;;
52124;SDS011;38119;52.710;6.398;2023-04-25T06:02:17;13.40;;;2.53;;
52124;SDS011;38119;52.710;6.398;2023-04-25T06:04:43;9.43;;;2.42;;
52124;SDS011;38119;52.710;6.398;2023-04-25T06:07:09;9.05;;;2.30;;
52124;SDS011;38119;52.710;6.398;2023-04-25T06:09:35;10.60;;;2.35;;
52124;SDS011;38119;52.710;6.398;2023-04-25T06:12:00;9.77;;;2.20;;
52124;SDS011;38119;52.710;6.398;2023-04-25T06:14:26;12.70;;;2.70;;
52124;SDS011;38119;52.710;6.398;2023-04-25T06:16:52;12.05;;;2.13;;
52124;SDS011;38119;52.710;6.398;2023-04-25T06:19:18;9.65;;;2.25;;
52124;SDS011;38119;52.710;6.398;2023-04-25T06:21:46;10.05;;;2.38;;
52124;SDS011;38119;52.710;6.398;2023-04-25T06:24:12;11.88;;;2.30;;
52124;SDS011;38119;52.710;6.398;2023-04-25T06:26:37;9.27;;;2.05;;
52124;SDS011;38119;52.710;6.398;2023-04-25T06:29:03;7.93;;;2.88;;
52124;SDS011;38119;52.710;6.398;2023-04-25T06:31:28;8.98;;;2.35;;
52124;SDS011;38119;52.710;6.398;2023-04-25T06:33:57;10.93;;;2.60;;
52124;SDS011;38119;52.710;6.398;2023-04-25T06:36:22;11.23;;;2.75;;
52124;SDS011;38119;52.710;6.398;2023-04-25T06:38:50;8.68;;;2.15;;
52124;SDS011;38119;52.710;6.398;2023-04-25T06:41:17;7.97;;;2.45;;
52124;SDS011;38119;52.710;6.398;2023-04-25T06:43:43;9.15;;;1.80;;
52124;SDS011;38119;52.710;6.398;2023-04-25T06:46:09;9.43;;;1.98;;
52124;SDS011;38119;52.710;6.398;2023-04-25T06:48:35;8.25;;;1.83;;
52124;SDS011;38119;52.710;6.398;2023-04-25T06:51:00;14.73;;;1.85;;
52124;SDS011;38119;52.710;6.398;2023-04-25T06:53:26;7.00;;;2.20;;
52124;SDS011;38119;52.710;6.398;2023-04-25T06:55:52;6.65;;;1.90;;
52124;SDS011;38119;52.710;6.398;2023-04-25T06:58:17;12.70;;;2.25;;
52124;SDS011;38119;52.710;6.398;2023-04-25T07:00:43;12.13;;;2.30;;
52124;SDS011;38119;52.710;6.398;2023-04-25T07:03:09;7.10;;;1.60;;
52124;SDS011;38119;52.710;6.398;2023-04-25T07:05:34;7.10;;;1.65;;
52124;SDS011;38119;52.710;6.398;2023-04-25T07:08:00;11.13;;;1.95;;
52124;SDS011;38119;52.710;6.398;2023-04-25T07:10:26;9.85;;;2.08;;
52124;SDS011;38119;52.710;6.398;2023-04-25T07:12:51;12.10;;;1.92;;
52124;SDS011;38119;52.710;6.398;2023-04-25T07:15:17;9.73;;;1.85;;
52124;SDS011;38119;52.710;6.398;2023-04-25T07:17:42;10.35;;;2.35;;
52124;SDS011;38119;52.710;6.398;2023-04-25T07:20:08;11.13;;;2.25;;
52124;SDS011;38119;52.710;6.398;2023-04-25T07:22:35;9.73;;;2.00;;
52124;SDS011;38119;52.710;6.398;2023-04-25T07:25:00;10.57;;;2.03;;
52124;SDS011;38119;52.710;6.398;2023-04-25T07:27:26;9.95;;;2.10;;
52124;SDS011;38119;52.710;6.398;2023-04-25T07:29:52;9.75;;;2.30;;
52124;SDS011;38119;52.710;6.398;2023-04-25T07:32:18;11.52;;;2.70;;
52124;SDS011;38119;52.710;6.398;2023-04-25T07:34:43;9.40;;;3.03;;
52124;SDS011;38119;52.710;6.398;2023-04-25T07:37:09;7.72;;;2.03;;
52124;SDS011;38119;52.710;6.398;2023-04-25T07:39:34;10.90;;;2.13;;
52124;SDS011;38119;52.710;6.398;2023-04-25T07:42:00;10.85;;;2.25;;
52124;SDS011;38119;52.710;6.398;2023-04-25T07:44:27;8.65;;;2.20;;
52124;SDS011;38119;52.710;6.398;2023-04-25T07:46:53;13.88;;;1.98;;
52124;SDS011;38119;52.710;6.398;2023-04-25T07:49:18;10.95;;;2.03;;
52124;SDS011;38119;52.710;6.398;2023-04-25T07:51:44;7.50;;;1.73;;
52124;SDS011;38119;52.710;6.398;2023-04-25T07:54:12;8.80;;;1.80;;
52124;SDS011;38119;52.710;6.398;2023-04-25T07:56:38;10.73;;;1.73;;
52124;SDS011;38119;52.710;6.398;2023-04-25T07:59:04;7.38;;;1.80;;
52124;SDS011;38119;52.710;6.398;2023-04-25T08:01:30;9.65;;;1.83;;
52124;SDS011;38119;52.710;6.398;2023-04-25T08:03:55;12.35;;;2.08;;
52124;SDS011;38119;52.710;6.398;2023-04-25T08:06:21;9.35;;;1.90;;
52124;SDS011;38119;52.710;6.398;2023-04-25T08:08:47;4.18;;;1.38;;
52124;SDS011;38119;52.710;6.398;2023-04-25T08:11:12;11.38;;;1.80;;
52124;SDS011;38119;52.710;6.398;2023-04-25T08:13:38;10.57;;;2.25;;
52124;SDS011;38119;52.710;6.398;2023-04-25T08:16:03;10.63;;;1.73;;
52124;SDS011;38119;52.710;6.398;2023-04-25T08:18:29;13.52;;;2.13;;
52124;SDS011;38119;52.710;6.398;2023-04-25T08:20:55;5.63;;;1.30;;
52124;SDS011;38119;52.710;6.398;2023-04-25T08:23:21;5.85;;;1.02;;
52124;SDS011;38119;52.710;6.398;2023-04-25T08:25:47;3.60;;;1.17;;
52124;SDS011;38119;52.710;6.398;2023-04-25T08:28:12;4.25;;;1.10;;
52124;SDS011;38119;52.710;6.398;2023-04-25T08:30:38;2.10;;;1.00;;
52124;SDS011;38119;52.710;6.398;2023-04-25T08:33:03;5.72;;;0.90;;
52124;SDS011;38119;52.710;6.398;2023-04-25T08:35:29;4.28;;;1.10;;
52124;SDS011;38119;52.710;6.398;2023-04-25T08:37:54;4.32;;;0.82;;
52124;SDS011;38119;52.710;6.398;2023-04-25T08:40:20;4.43;;;1.20;;
52124;SDS011;38119;52.710;6.398;2023-04-25T08:42:53;4.60;;;1.10;;
52124;SDS011;38119;52.710;6.398;2023-04-25T08:45:20;6.45;;;1.20;;
52124;SDS011;38119;52.710;6.398;2023-04-25T08:47:46;6.95;;;1.10;;
52124;SDS011;38119;52.710;6.398;2023-04-25T08:50:13;2.38;;;0.90;;
52124;SDS011;38119;52.710;6.398;2023-04-25T08:52:48;5.72;;;1.20;;
52124;SDS011;38119;52.710;6.398;2023-04-25T08:55:17;3.70;;;1.17;;
52124;SDS011;38119;52.710;6.398;2023-04-25T08:57:43;5.70;;;1.42;;
52124;SDS011;38119;52.710;6.398;2023-04-25T09:00:10;7.93;;;1.35;;
52124;SDS011;38119;52.710;6.398;2023-04-25T09:02:38;7.32;;;1.20;;
52124;SDS011;38119;52.710;6.398;2023-04-25T09:05:04;7.60;;;1.33;;
52124;SDS011;38119;52.710;6.398;2023-04-25T09:07:31;4.00;;;0.90;;
52124;SDS011;38119;52.710;6.398;2023-04-25T09:09:57;6.88;;;1.52;;
52124;SDS011;38119;52.710;6.398;2023-04-25T09:12:26;4.03;;;1.10;;
52124;SDS011;38119;52.710;6.398;2023-04-25T09:15:06;7.13;;;1.48;;
52124;SDS011;38119;52.710;6.398;2023-04-25T09:17:34;4.43;;;1.25;;
52124;SDS011;38119;52.710;6.398;2023-04-25T09:20:07;7.13;;;1.70;;
52124;SDS011;38119;52.710;6.398;2023-04-25T09:22:35;6.60;;;1.33;;
52124;SDS011;38119;52.710;6.398;2023-04-25T09:25:02;5.68;;;1.40;;
52124;SDS011;38119;52.710;6.398;2023-04-25T09:27:29;11.20;;;2.22;;
52124;SDS011;38119;52.710;6.398;2023-04-25T09:29:58;7.65;;;1.70;;
52124;SDS011;38119;52.710;6.398;2023-04-25T09:32:25;6.97;;;1.60;;
52124;SDS011;38119;52.710;6.398;2023-04-25T09:34:55;8.18;;;1.60;;
52124;SDS011;38119;52.710;6.398;2023-04-25T09:37:22;7.75;;;1.50;;
52124;SDS011;38119;52.710;6.398;2023-04-25T09:39:50;4.68;;;1.45;;
52124;SDS011;38119;52.710;6.398;2023-04-25T09:42:21;6.45;;;2.00;;
52124;SDS011;38119;52.710;6.398;2023-04-25T09:44:49;8.52;;;1.75;;
52124;SDS011;38119;52.710;6.398;2023-04-25T09:47:17;9.13;;;1.83;;
52124;SDS011;38119;52.710;6.398;2023-04-25T09:49:46;9.15;;;1.83;;
52124;SDS011;38119;52.710;6.398;2023-04-25T09:52:15;6.95;;;1.60;;
52124;SDS011;38119;52.710;6.398;2023-04-25T09:54:45;7.15;;;1.70;;
52124;SDS011;38119;52.710;6.398;2023-04-25T09:57:16;6.95;;;1.40;;
52124;SDS011;38119;52.710;6.398;2023-04-25T09:59:48;7.00;;;1.73;;
52124;SDS011;38119;52.710;6.398;2023-04-25T10:02:15;5.65;;;1.48;;
52124;SDS011;38119;52.710;6.398;2023-04-25T10:04:44;9.85;;;1.88;;
52124;SDS011;38119;52.710;6.398;2023-04-25T10:07:12;8.50;;;1.85;;
52124;SDS011;38119;52.710;6.398;2023-04-25T10:09:39;10.23;;;1.80;;
52124;SDS011;38119;52.710;6.398;2023-04-25T10:12:06;6.30;;;1.80;;
52124;SDS011;38119;52.710;6.398;2023-04-25T10:14:33;8.50;;;1.65;;
52124;SDS011;38119;52.710;6.398;2023-04-25T10:16:59;4.40;;;1.60;;
52124;SDS011;38119;52.710;6.398;2023-04-25T10:19:26;5.30;;;1.77;;
52124;SDS011;38119;52.710;6.398;2023-04-25T10:24:18;12.68;;;1.60;;
52124;SDS011;38119;52.710;6.398;2023-04-25T10:26:45;7.68;;;1.50;;
52124;SDS011;38119;52.710;6.398;2023-04-25T10:29:12;9.25;;;1.80;;
52124;SDS011;38119;52.710;6.398;2023-04-25T10:31:46;6.72;;;1.58;;
52124;SDS011;38119;52.710;6.398;2023-04-25T10:34:12;5.97;;;1.42;;
52124;SDS011;38119;52.710;6.398;2023-04-25T10:36:38;6.72;;;1.52;;
52124;SDS011;38119;52.710;6.398;2023-04-25T10:39:05;6.00;;;1.60;;
52124;SDS011;38119;52.710;6.398;2023-04-25T10:41:32;6.30;;;1.65;;
52124;SDS011;38119;52.710;6.398;2023-04-25T10:44:12;8.23;;;1.60;;
52124;SDS011;38119;52.710;6.398;2023-04-25T10:46:38;6.93;;;1.85;;
52124;SDS011;38119;52.710;6.398;2023-04-25T10:49:04;10.77;;;2.08;;
52124;SDS011;38119;52.710;6.398;2023-04-25T10:51:33;7.78;;;1.70;;
52124;SDS011;38119;52.710;6.398;2023-04-25T10:54:03;11.70;;;1.83;;
52124;SDS011;38119;52.710;6.398;2023-04-25T10:56:30;7.53;;;1.85;;
52124;SDS011;38119;52.710;6.398;2023-04-25T11:01:40;5.90;;;1.67;;
52124;SDS011;38119;52.710;6.398;2023-04-25T11:04:28;6.65;;;1.60;;
52124;SDS011;38119;52.710;6.398;2023-04-25T11:09:41;8.68;;;1.40;;
52124;SDS011;38119;52.710;6.398;2023-04-25T11:12:10;8.02;;;1.63;;
52124;SDS011;38119;52.710;6.398;2023-04-25T11:14:39;29.38;;;3.10;;
52124;SDS011;38119;52.710;6.398;2023-04-25T11:17:04;16.75;;;2.10;;
52124;SDS011;38119;52.710;6.398;2023-04-25T11:19:31;9.40;;;1.65;;
52124;SDS011;38119;52.710;6.398;2023-04-25T11:22:00;6.13;;;1.95;;
52124;SDS011;38119;52.710;6.398;2023-04-25T11:24:28;5.95;;;1.40;;
52124;SDS011;38119;52.710;6.398;2023-04-25T11:26:54;4.20;;;1.38;;
52124;SDS011;38119;52.710;6.398;2023-04-25T11:29:26;7.43;;;1.60;;
52124;SDS011;38119;52.710;6.398;2023-04-25T11:31:52;4.75;;;1.45;;
52124;SDS011;38119;52.710;6.398;2023-04-25T11:34:18;7.43;;;1.75;;
52124;SDS011;38119;52.710;6.398;2023-04-25T11:36:45;5.35;;;1.80;;
52124;SDS011;38119;52.710;6.398;2023-04-25T11:39:11;8.13;;;1.90;;
52124;SDS011;38119;52.710;6.398;2023-04-25T11:41:37;9.55;;;1.80;;
52124;SDS011;38119;52.710;6.398;2023-04-25T11:44:03;6.68;;;1.88;;
52124;SDS011;38119;52.710;6.398;2023-04-25T11:46:30;7.78;;;1.58;;
52124;SDS011;38119;52.710;6.398;2023-04-25T11:48:58;5.75;;;1.48;;
52124;SDS011;38119;52.710;6.398;2023-04-25T11:51:24;4.35;;;1.30;;
52124;SDS011;38119;52.710;6.398;2023-04-25T11:53:51;5.60;;;1.42;;
52124;SDS011;38119;52.710;6.398;2023-04-25T11:56:16;4.20;;;1.33;;
52124;SDS011;38119;52.710;6.398;2023-04-25T11:58:58;5.68;;;1.38;;
52124;SDS011;38119;52.710;6.398;2023-04-25T12:01:29;6.88;;;1.50;;
52124;SDS011;38119;52.710;6.398;2023-04-25T12:03:56;5.07;;;1.30;;
52124;SDS011;38119;52.710;6.398;2023-04-25T12:06:25;5.80;;;1.35;;
52124;SDS011;38119;52.710;6.398;2023-04-25T12:09:27;5.32;;;1.33;;
52124;SDS011;38119;52.710;6.398;2023-04-25T12:11:52;4.65;;;1.33;;
52124;SDS011;38119;52.710;6.398;2023-04-25T12:16:49;4.78;;;1.48;;
52124;SDS011;38119;52.710;6.398;2023-04-25T12:19:16;6.85;;;1.70;;
52124;SDS011;38119;52.710;6.398;2023-04-25T12:21:43;6.50;;;1.67;;
52124;SDS011;38119;52.710;6.398;2023-04-25T12:24:10;5.50;;;1.70;;
52124;SDS011;38119;52.710;6.398;2023-04-25T12:26:47;5.90;;;1.70;;
52124;SDS011;38119;52.710;6.398;2023-04-25T12:29:22;23.98;;;2.58;;
52124;SDS011;38119;52.710;6.398;2023-04-25T12:31:50;133.05;;;8.35;;
52124;SDS011;38119;52.710;6.398;2023-04-25T12:34:20;19.35;;;2.55;;
52124;SDS011;38119;52.710;6.398;2023-04-25T12:36:47;6.72;;;1.83;;
52124;SDS011;38119;52.710;6.398;2023-04-25T12:39:19;9.90;;;4.40;;
52124;SDS011;38119;52.710;6.398;2023-04-25T12:41:47;10.23;;;3.28;;
52124;SDS011;38119;52.710;6.398;2023-04-25T12:44:13;7.05;;;2.10;;
52124;SDS011;38119;52.710;6.398;2023-04-25T12:46:39;7.40;;;2.53;;
52124;SDS011;38119;52.710;6.398;2023-04-25T12:49:08;7.65;;;3.55;;
52124;SDS011;38119;52.710;6.398;2023-04-25T12:51:34;6.20;;;2.75;;
52124;SDS011;38119;52.710;6.398;2023-04-25T12:54:01;7.95;;;4.35;;
52124;SDS011;38119;52.710;6.398;2023-04-25T12:56:27;7.55;;;4.40;;
52124;SDS011;38119;52.710;6.398;2023-04-25T12:58:54;7.00;;;4.57;;
52124;SDS011;38119;52.710;6.398;2023-04-25T13:01:20;5.63;;;2.20;;
52124;SDS011;38119;52.710;6.398;2023-04-25T13:03:46;4.78;;;2.25;;
52124;SDS011;38119;52.710;6.398;2023-04-25T13:06:13;9.55;;;2.75;;
52124;SDS011;38119;52.710;6.398;2023-04-25T13:08:39;10.82;;;2.33;;
52124;SDS011;38119;52.710;6.398;2023-04-25T13:11:06;6.57;;;2.10;;
52124;SDS011;38119;52.710;6.398;2023-04-25T13:13:32;7.50;;;1.80;;
52124;SDS011;38119;52.710;6.398;2023-04-25T13:15:59;11.13;;;2.60;;
52124;SDS011;38119;52.710;6.398;2023-04-25T13:18:29;6.25;;;1.80;;
52124;SDS011;38119;52.710;6.398;2023-04-25T13:20:55;11.27;;;2.30;;
52124;SDS011;38119;52.710;6.398;2023-04-25T13:23:22;9.98;;;1.98;;
52124;SDS011;38119;52.710;6.398;2023-04-25T13:25:48;5.35;;;1.80;;
52124;SDS011;38119;52.710;6.398;2023-04-25T13:28:14;6.55;;;1.70;;
52124;SDS011;38119;52.710;6.398;2023-04-25T13:30:40;8.90;;;2.50;;
52124;SDS011;38119;52.710;6.398;2023-04-25T13:33:06;8.98;;;1.92;;
52124;SDS011;38119;52.710;6.398;2023-04-25T13:35:32;8.18;;;2.00;;
52124;SDS011;38119;52.710;6.398;2023-04-25T13:37:59;7.82;;;1.70;;
52124;SDS011;38119;52.710;6.398;2023-04-25T13:40:25;9.80;;;2.40;;
52124;SDS011;38119;52.710;6.398;2023-04-25T13:42:51;7.57;;;1.90;;
52124;SDS011;38119;52.710;6.398;2023-04-25T13:45:17;6.15;;;2.08;;
52124;SDS011;38119;52.710;6.398;2023-04-25T13:47:43;9.57;;;2.20;;
52124;SDS011;38119;52.710;6.398;2023-04-25T13:50:09;4.65;;;1.95;;
52124;SDS011;38119;52.710;6.398;2023-04-25T13:52:35;13.85;;;6.38;;
52124;SDS011;38119;52.710;6.398;2023-04-25T13:55:00;15.23;;;6.30;;
52124;SDS011;38119;52.710;6.398;2023-04-25T13:57:28;15.02;;;6.18;;
52124;SDS011;38119;52.710;6.398;2023-04-25T13:59:55;12.57;;;5.68;;
52124;SDS011;38119;52.710;6.398;2023-04-25T14:02:21;11.10;;;5.03;;
52124;SDS011;38119;52.710;6.398;2023-04-25T14:04:46;8.80;;;3.33;;
52124;SDS011;38119;52.710;6.398;2023-04-25T14:07:12;6.47;;;4.18;;
52124;SDS011;38119;52.710;6.398;2023-04-25T14:09:41;7.60;;;2.30;;
52124;SDS011;38119;52.710;6.398;2023-04-25T14:12:06;6.70;;;2.63;;
52124;SDS011;38119;52.710;6.398;2023-04-25T14:14:32;8.43;;;3.25;;
52124;SDS011;38119;52.710;6.398;2023-04-25T14:16:58;7.07;;;1.80;;
52124;SDS011;38119;52.710;6.398;2023-04-25T14:19:23;5.47;;;1.88;;
52124;SDS011;38119;52.710;6.398;2023-04-25T14:21:49;9.05;;;1.73;;
52124;SDS011;38119;52.710;6.398;2023-04-25T14:24:15;12.30;;;2.08;;
52124;SDS011;38119;52.710;6.398;2023-04-25T14:26:40;6.93;;;2.22;;
52124;SDS011;38119;52.710;6.398;2023-04-25T14:29:07;5.25;;;1.40;;
52124;SDS011;38119;52.710;6.398;2023-04-25T14:31:33;5.32;;;1.60;;
52124;SDS011;38119;52.710;6.398;2023-04-25T14:34:00;6.78;;;1.70;;
52124;SDS011;38119;52.710;6.398;2023-04-25T14:36:28;7.50;;;2.10;;
52124;SDS011;38119;52.710;6.398;2023-04-25T14:38:53;7.85;;;2.35;;
52124;SDS011;38119;52.710;6.398;2023-04-25T14:41:19;6.85;;;1.65;;
52124;SDS011;38119;52.710;6.398;2023-04-25T14:43:46;4.55;;;1.55;;
52124;SDS011;38119;52.710;6.398;2023-04-25T14:46:12;4.63;;;1.40;;
52124;SDS011;38119;52.710;6.398;2023-04-25T14:48:37;4.20;;;1.33;;